sensor_id;sensor_type;location;lat;lon;timestamp;temperature;humidity
15636;DHT22;7917;50.818;6.972;2024-02-23T00:00:46;5.60;99.90
15636;DHT22;7917;50.818;6.972;2024-02-23T00:03:13;5.60;99.90
15636;DHT22;7917;50.818;6.972;2024-02-23T00:05:40;5.60;99.90
15636;DHT22;7917;50.818;6.972;2024-02-23T00:08:07;5.50;99.90
15636;DHT22;7917;50.818;6.972;2024-02-23T00:10:34;5.50;99.90
15636;DHT22;7917;50.818;6.972;2024-02-23T00:13:01;5.40;99.90
15636;DHT22;7917;50.818;6.972;2024-02-23T00:15:27;5.40;99.90
15636;DHT22;7917;50.818;6.972;2024-02-23T00:17:54;5.40;99.90
15636;DHT22;7917;50.818;6.972;2024-02-23T00:20:20;5.40;99.90
15636;DHT22;7917;50.818;6.972;2024-02-23T00:22:47;5.40;99.90
15636;DHT22;7917;50.818;6.972;2024-02-23T00:25:13;5.40;99.90
15636;DHT22;7917;50.818;6.972;2024-02-23T00:27:40;5.30;99.90
15636;DHT22;7917;50.818;6.972;2024-02-23T00:30:08;5.30;99.90
15636;DHT22;7917;50.818;6.972;2024-02-23T00:32:34;5.30;99.90
15636;DHT22;7917;50.818;6.972;2024-02-23T00:35:01;5.30;99.90
15636;DHT22;7917;50.818;6.972;2024-02-23T00:37:27;5.40;99.90
15636;DHT22;7917;50.818;6.972;2024-02-23T00:39:54;5.40;99.90
15636;DHT22;7917;50.818;6.972;2024-02-23T00:42:20;5.40;99.90
15636;DHT22;7917;50.818;6.972;2024-02-23T00:44:47;5.40;99.90
15636;DHT22;7917;50.818;6.972;2024-02-23T00:47:14;5.40;99.90
15636;DHT22;7917;50.818;6.972;2024-02-23T00:49:40;5.40;99.90
15636;DHT22;7917;50.818;6.972;2024-02-23T00:52:06;5.30;99.90
15636;DHT22;7917;50.818;6.972;2024-02-23T00:54:32;5.20;99.90
15636;DHT22;7917;50.818;6.972;2024-02-23T00:56:59;5.20;99.90
15636;DHT22;7917;50.818;6.972;2024-02-23T00:59:26;5.10;99.90
15636;DHT22;7917;50.818;6.972;2024-02-23T01:01:52;5.10;99.90
15636;DHT22;7917;50.818;6.972;2024-02-23T01:04:18;5.10;99.90
15636;DHT22;7917;50.818;6.972;2024-02-23T01:06:45;5.00;99.90
15636;DHT22;7917;50.818;6.972;2024-02-23T01:09:11;5.10;99.90
15636;DHT22;7917;50.818;6.972;2024-02-23T01:11:38;5.10;99.90
15636;DHT22;7917;50.818;6.972;2024-02-23T01:14:05;5.10;99.90
15636;DHT22;7917;50.818;6.972;2024-02-23T01:16:32;5.10;99.90
15636;DHT22;7917;50.818;6.972;2024-02-23T01:18:58;5.00;99.90
15636;DHT22;7917;50.818;6.972;2024-02-23T01:21:24;5.10;99.90
15636;DHT22;7917;50.818;6.972;2024-02-23T01:23:51;5.10;99.90
15636;DHT22;7917;50.818;6.972;2024-02-23T01:26:17;5.10;99.90
15636;DHT22;7917;50.818;6.972;2024-02-23T01:28:43;5.20;99.90
15636;DHT22;7917;50.818;6.972;2024-02-23T01:31:11;5.10;99.90
15636;DHT22;7917;50.818;6.972;2024-02-23T01:33:38;5.10;99.90
15636;DHT22;7917;50.818;6.972;2024-02-23T01:36:05;5.10;99.90
15636;DHT22;7917;50.818;6.972;2024-02-23T01:38:31;5.10;99.90
15636;DHT22;7917;50.818;6.972;2024-02-23T01:40:58;5.00;99.90
15636;DHT22;7917;50.818;6.972;2024-02-23T01:43:24;5.00;99.90
15636;DHT22;7917;50.818;6.972;2024-02-23T01:45:51;4.90;99.90
15636;DHT22;7917;50.818;6.972;2024-02-23T01:48:18;4.90;99.90
15636;DHT22;7917;50.818;6.972;2024-02-23T01:50:45;4.90;99.90
15636;DHT22;7917;50.818;6.972;2024-02-23T01:53:12;4.90;99.90
15636;DHT22;7917;50.818;6.972;2024-02-23T01:55:40;4.90;99.90
15636;DHT22;7917;50.818;6.972;2024-02-23T01:58:07;5.00;99.90
15636;DHT22;7917;50.818;6.972;2024-02-23T02:00:34;5.10;99.90
15636;DHT22;7917;50.818;6.972;2024-02-23T02:03:02;5.10;99.90
15636;DHT22;7917;50.818;6.972;2024-02-23T02:05:29;5.10;99.90
15636;DHT22;7917;50.818;6.972;2024-02-23T02:07:56;5.10;99.90
15636;DHT22;7917;50.818;6.972;2024-02-23T02:10:25;5.10;99.90
15636;DHT22;7917;50.818;6.972;2024-02-23T02:12:51;5.20;99.90
15636;DHT22;7917;50.818;6.972;2024-02-23T02:15:17;5.20;99.90
15636;DHT22;7917;50.818;6.972;2024-02-23T02:17:44;5.10;99.90
15636;DHT22;7917;50.818;6.972;2024-02-23T02:20:12;5.10;99.90
15636;DHT22;7917;50.818;6.972;2024-02-23T02:22:39;5.00;99.90
15636;DHT22;7917;50.818;6.972;2024-02-23T02:25:06;5.00;99.90
15636;DHT22;7917;50.818;6.972;2024-02-23T02:27:33;4.90;99.90
15636;DHT22;7917;50.818;6.972;2024-02-23T02:29:59;4.90;99.90
15636;DHT22;7917;50.818;6.972;2024-02-23T02:32:25;4.90;99.90
15636;DHT22;7917;50.818;6.972;2024-02-23T02:34:52;4.90;99.90
15636;DHT22;7917;50.818;6.972;2024-02-23T02:37:18;4.90;99.90
15636;DHT22;7917;50.818;6.972;2024-02-23T02:39:45;4.90;99.90
15636;DHT22;7917;50.818;6.972;2024-02-23T02:42:11;4.90;99.90
15636;DHT22;7917;50.818;6.972;2024-02-23T02:44:37;5.00;99.90
15636;DHT22;7917;50.818;6.972;2024-02-23T02:47:04;4.90;99.90
15636;DHT22;7917;50.818;6.972;2024-02-23T02:49:30;4.90;99.90
15636;DHT22;7917;50.818;6.972;2024-02-23T02:51:57;4.90;99.90
15636;DHT22;7917;50.818;6.972;2024-02-23T02:54:23;5.00;99.90
15636;DHT22;7917;50.818;6.972;2024-02-23T02:56:50;5.00;99.90
15636;DHT22;7917;50.818;6.972;2024-02-23T02:59:19;5.00;99.90
15636;DHT22;7917;50.818;6.972;2024-02-23T03:01:46;5.00;99.90
15636;DHT22;7917;50.818;6.972;2024-02-23T03:04:12;5.10;99.90
15636;DHT22;7917;50.818;6.972;2024-02-23T03:06:39;5.00;99.90
15636;DHT22;7917;50.818;6.972;2024-02-23T03:09:05;5.00;99.90
15636;DHT22;7917;50.818;6.972;2024-02-23T03:11:32;5.00;99.90
15636;DHT22;7917;50.818;6.972;2024-02-23T03:13:59;5.00;99.90
15636;DHT22;7917;50.818;6.972;2024-02-23T03:16:25;5.00;99.90
15636;DHT22;7917;50.818;6.972;2024-02-23T03:18:53;5.00;99.90
15636;DHT22;7917;50.818;6.972;2024-02-23T03:21:20;4.90;99.90
15636;DHT22;7917;50.818;6.972;2024-02-23T03:23:46;4.80;99.90
15636;DHT22;7917;50.818;6.972;2024-02-23T03:26:12;4.70;99.90
15636;DHT22;7917;50.818;6.972;2024-02-23T03:28:39;4.70;99.90
15636;DHT22;7917;50.818;6.972;2024-02-23T03:31:06;4.60;99.90
15636;DHT22;7917;50.818;6.972;2024-02-23T03:33:32;4.60;99.90
15636;DHT22;7917;50.818;6.972;2024-02-23T03:35:59;4.50;99.90
15636;DHT22;7917;50.818;6.972;2024-02-23T03:38:25;4.50;99.90
15636;DHT22;7917;50.818;6.972;2024-02-23T03:40:52;4.50;99.90
15636;DHT22;7917;50.818;6.972;2024-02-23T03:43:19;4.50;99.90
15636;DHT22;7917;50.818;6.972;2024-02-23T03:45:46;4.60;99.90
15636;DHT22;7917;50.818;6.972;2024-02-23T03:48:13;4.60;99.90
15636;DHT22;7917;50.818;6.972;2024-02-23T03:50:39;4.70;99.90
15636;DHT22;7917;50.818;6.972;2024-02-23T03:53:06;4.70;99.90
15636;DHT22;7917;50.818;6.972;2024-02-23T03:55:32;4.60;99.90
15636;DHT22;7917;50.818;6.972;2024-02-23T03:57:59;4.60;99.90
15636;DHT22;7917;50.818;6.972;2024-02-23T04:03:48;4.70;99.90
15636;DHT22;7917;50.818;6.972;2024-02-23T04:06:14;4.60;99.90
15636;DHT22;7917;50.818;6.972;2024-02-23T04:08:41;4.50;99.90
15636;DHT22;7917;50.818;6.972;2024-02-23T04:11:08;4.50;99.90
15636;DHT22;7917;50.818;6.972;2024-02-23T04:13:34;4.60;99.90
15636;DHT22;7917;50.818;6.972;2024-02-23T04:16:00;4.60;99.90
15636;DHT22;7917;50.818;6.972;2024-02-23T04:18:27;4.70;99.90
15636;DHT22;7917;50.818;6.972;2024-02-23T04:20:54;4.70;99.90
15636;DHT22;7917;50.818;6.972;2024-02-23T04:23:20;4.60;99.90
15636;DHT22;7917;50.818;6.972;2024-02-23T04:25:47;4.70;99.90
15636;DHT22;7917;50.818;6.972;2024-02-23T04:28:13;4.60;99.90
15636;DHT22;7917;50.818;6.972;2024-02-23T04:30:39;4.60;99.90
15636;DHT22;7917;50.818;6.972;2024-02-23T04:33:06;4.50;99.90
15636;DHT22;7917;50.818;6.972;2024-02-23T04:35:32;4.40;99.90
15636;DHT22;7917;50.818;6.972;2024-02-23T04:37:59;4.30;99.90
15636;DHT22;7917;50.818;6.972;2024-02-23T04:40:26;4.30;99.90
15636;DHT22;7917;50.818;6.972;2024-02-23T04:42:52;4.30;99.90
15636;DHT22;7917;50.818;6.972;2024-02-23T04:45:18;4.30;99.90
15636;DHT22;7917;50.818;6.972;2024-02-23T04:47:45;4.40;99.90
15636;DHT22;7917;50.818;6.972;2024-02-23T04:50:12;4.60;99.90
15636;DHT22;7917;50.818;6.972;2024-02-23T04:52:38;4.70;99.90
15636;DHT22;7917;50.818;6.972;2024-02-23T04:55:06;4.80;99.90
15636;DHT22;7917;50.818;6.972;2024-02-23T04:57:33;4.80;99.90
15636;DHT22;7917;50.818;6.972;2024-02-23T04:59:59;4.70;99.90
15636;DHT22;7917;50.818;6.972;2024-02-23T05:02:25;4.70;99.90
15636;DHT22;7917;50.818;6.972;2024-02-23T05:04:55;4.70;99.90
15636;DHT22;7917;50.818;6.972;2024-02-23T05:07:23;4.50;99.90
15636;DHT22;7917;50.818;6.972;2024-02-23T05:09:49;4.50;99.90
15636;DHT22;7917;50.818;6.972;2024-02-23T05:12:16;4.50;99.90
15636;DHT22;7917;50.818;6.972;2024-02-23T05:14:42;4.30;99.90
15636;DHT22;7917;50.818;6.972;2024-02-23T05:17:09;4.40;99.90
15636;DHT22;7917;50.818;6.972;2024-02-23T05:19:35;4.20;99.90
15636;DHT22;7917;50.818;6.972;2024-02-23T05:22:01;4.00;99.90
15636;DHT22;7917;50.818;6.972;2024-02-23T05:24:29;4.00;99.90
15636;DHT22;7917;50.818;6.972;2024-02-23T05:26:56;3.90;99.90
15636;DHT22;7917;50.818;6.972;2024-02-23T05:29:24;3.80;99.90
15636;DHT22;7917;50.818;6.972;2024-02-23T05:31:52;3.80;99.90
15636;DHT22;7917;50.818;6.972;2024-02-23T05:34:19;3.80;99.90
15636;DHT22;7917;50.818;6.972;2024-02-23T05:36:45;3.80;99.90
15636;DHT22;7917;50.818;6.972;2024-02-23T05:39:12;3.80;99.90
15636;DHT22;7917;50.818;6.972;2024-02-23T05:41:41;3.80;99.90
15636;DHT22;7917;50.818;6.972;2024-02-23T05:44:07;3.90;99.90
15636;DHT22;7917;50.818;6.972;2024-02-23T05:46:35;3.80;99.90
15636;DHT22;7917;50.818;6.972;2024-02-23T05:49:02;3.80;99.90
15636;DHT22;7917;50.818;6.972;2024-02-23T05:51:30;3.70;99.90
15636;DHT22;7917;50.818;6.972;2024-02-23T05:53:56;3.60;99.90
15636;DHT22;7917;50.818;6.972;2024-02-23T05:56:23;3.40;99.90
15636;DHT22;7917;50.818;6.972;2024-02-23T05:58:50;3.30;99.90
15636;DHT22;7917;50.818;6.972;2024-02-23T06:01:16;3.20;99.90
15636;DHT22;7917;50.818;6.972;2024-02-23T06:03:44;3.20;99.90
15636;DHT22;7917;50.818;6.972;2024-02-23T06:06:10;3.10;99.90
15636;DHT22;7917;50.818;6.972;2024-02-23T06:08:37;3.00;99.90
15636;DHT22;7917;50.818;6.972;2024-02-23T06:11:04;2.90;99.90
15636;DHT22;7917;50.818;6.972;2024-02-23T06:13:30;2.80;99.90
15636;DHT22;7917;50.818;6.972;2024-02-23T06:15:57;2.80;99.90
15636;DHT22;7917;50.818;6.972;2024-02-23T06:18:23;2.70;99.90
15636;DHT22;7917;50.818;6.972;2024-02-23T06:20:50;2.80;99.90
15636;DHT22;7917;50.818;6.972;2024-02-23T06:23:17;2.80;99.90
15636;DHT22;7917;50.818;6.972;2024-02-23T06:25:43;2.80;99.90
15636;DHT22;7917;50.818;6.972;2024-02-23T06:28:10;2.80;99.90
15636;DHT22;7917;50.818;6.972;2024-02-23T06:30:37;2.80;99.90
15636;DHT22;7917;50.818;6.972;2024-02-23T06:33:03;2.90;99.90
15636;DHT22;7917;50.818;6.972;2024-02-23T06:35:30;2.90;99.90
15636;DHT22;7917;50.818;6.972;2024-02-23T06:37:58;3.00;99.90
15636;DHT22;7917;50.818;6.972;2024-02-23T06:40:24;3.00;99.90
15636;DHT22;7917;50.818;6.972;2024-02-23T06:42:51;3.20;99.90
15636;DHT22;7917;50.818;6.972;2024-02-23T06:45:17;3.20;99.90
15636;DHT22;7917;50.818;6.972;2024-02-23T06:47:44;3.40;99.90
15636;DHT22;7917;50.818;6.972;2024-02-23T06:50:11;3.40;99.90
15636;DHT22;7917;50.818;6.972;2024-02-23T06:52:37;3.30;99.90
15636;DHT22;7917;50.818;6.972;2024-02-23T06:55:05;3.30;99.90
15636;DHT22;7917;50.818;6.972;2024-02-23T06:57:32;3.30;99.90
15636;DHT22;7917;50.818;6.972;2024-02-23T06:59:58;3.30;99.90
15636;DHT22;7917;50.818;6.972;2024-02-23T07:02:25;3.40;99.90
15636;DHT22;7917;50.818;6.972;2024-02-23T07:04:51;3.50;99.90
15636;DHT22;7917;50.818;6.972;2024-02-23T07:07:20;3.70;99.90
15636;DHT22;7917;50.818;6.972;2024-02-23T07:09:46;3.90;99.90
15636;DHT22;7917;50.818;6.972;2024-02-23T07:12:13;4.10;99.90
15636;DHT22;7917;50.818;6.972;2024-02-23T07:14:40;4.20;99.90
15636;DHT22;7917;50.818;6.972;2024-02-23T07:17:06;4.50;1.00
15636;DHT22;7917;50.818;6.972;2024-02-23T07:19:34;4.60;99.90
15636;DHT22;7917;50.818;6.972;2024-02-23T07:22:00;4.80;8.60
15636;DHT22;7917;50.818;6.972;2024-02-23T07:24:27;4.90;99.90
15636;DHT22;7917;50.818;6.972;2024-02-23T07:26:54;5.10;29.30
15636;DHT22;7917;50.818;6.972;2024-02-23T07:29:21;5.20;1.00
15636;DHT22;7917;50.818;6.972;2024-02-23T07:31:47;5.40;1.00
15636;DHT22;7917;50.818;6.972;2024-02-23T07:34:13;5.40;1.00
15636;DHT22;7917;50.818;6.972;2024-02-23T07:36:40;5.50;1.00
15636;DHT22;7917;50.818;6.972;2024-02-23T07:39:06;5.60;99.40
15636;DHT22;7917;50.818;6.972;2024-02-23T07:41:34;5.60;99.90
15636;DHT22;7917;50.818;6.972;2024-02-23T07:44:00;5.60;1.00
15636;DHT22;7917;50.818;6.972;2024-02-23T07:46:27;5.60;1.00
15636;DHT22;7917;50.818;6.972;2024-02-23T07:48:53;5.70;99.90
15636;DHT22;7917;50.818;6.972;2024-02-23T07:51:20;5.70;99.90
15636;DHT22;7917;50.818;6.972;2024-02-23T07:53:46;5.70;99.90
15636;DHT22;7917;50.818;6.972;2024-02-23T07:56:12;5.80;99.90
15636;DHT22;7917;50.818;6.972;2024-02-23T07:58:39;5.90;99.90
15636;DHT22;7917;50.818;6.972;2024-02-23T08:01:05;6.10;1.00
15636;DHT22;7917;50.818;6.972;2024-02-23T08:03:33;6.20;1.00
15636;DHT22;7917;50.818;6.972;2024-02-23T08:06:00;6.30;1.00
15636;DHT22;7917;50.818;6.972;2024-02-23T08:08:27;6.40;1.00
15636;DHT22;7917;50.818;6.972;2024-02-23T08:10:53;6.50;1.00
15636;DHT22;7917;50.818;6.972;2024-02-23T08:13:20;6.70;1.00
15636;DHT22;7917;50.818;6.972;2024-02-23T08:15:46;6.80;1.00
15636;DHT22;7917;50.818;6.972;2024-02-23T08:18:12;6.90;1.00
15636;DHT22;7917;50.818;6.972;2024-02-23T08:20:39;7.00;1.00
15636;DHT22;7917;50.818;6.972;2024-02-23T08:23:06;6.90;1.00
15636;DHT22;7917;50.818;6.972;2024-02-23T08:25:34;6.90;1.00
15636;DHT22;7917;50.818;6.972;2024-02-23T08:28:01;7.00;1.00
15636;DHT22;7917;50.818;6.972;2024-02-23T08:30:27;7.00;1.00
15636;DHT22;7917;50.818;6.972;2024-02-23T08:32:54;7.00;1.00
15636;DHT22;7917;50.818;6.972;2024-02-23T08:35:20;7.10;1.00
15636;DHT22;7917;50.818;6.972;2024-02-23T08:37:47;7.00;1.00
15636;DHT22;7917;50.818;6.972;2024-02-23T08:40:14;7.10;1.00
15636;DHT22;7917;50.818;6.972;2024-02-23T08:42:40;7.20;1.00
15636;DHT22;7917;50.818;6.972;2024-02-23T08:45:08;7.40;1.00
15636;DHT22;7917;50.818;6.972;2024-02-23T08:47:38;7.40;1.00
15636;DHT22;7917;50.818;6.972;2024-02-23T08:50:05;7.50;1.00
15636;DHT22;7917;50.818;6.972;2024-02-23T08:52:32;7.50;1.00
15636;DHT22;7917;50.818;6.972;2024-02-23T08:54:59;7.60;1.00
15636;DHT22;7917;50.818;6.972;2024-02-23T08:57:27;7.70;1.00
15636;DHT22;7917;50.818;6.972;2024-02-23T08:59:54;7.80;1.00
15636;DHT22;7917;50.818;6.972;2024-02-23T09:02:23;7.80;1.00
15636;DHT22;7917;50.818;6.972;2024-02-23T09:04:49;7.80;1.00
15636;DHT22;7917;50.818;6.972;2024-02-23T09:07:16;7.90;1.00
15636;DHT22;7917;50.818;6.972;2024-02-23T09:09:45;7.80;1.00
15636;DHT22;7917;50.818;6.972;2024-02-23T09:12:12;7.80;1.00
15636;DHT22;7917;50.818;6.972;2024-02-23T09:14:40;7.70;1.00
15636;DHT22;7917;50.818;6.972;2024-02-23T09:17:07;7.70;1.00
15636;DHT22;7917;50.818;6.972;2024-02-23T09:19:35;7.70;1.00
15636;DHT22;7917;50.818;6.972;2024-02-23T09:22:03;7.70;1.00
15636;DHT22;7917;50.818;6.972;2024-02-23T09:24:29;7.70;1.00
15636;DHT22;7917;50.818;6.972;2024-02-23T09:26:56;7.90;1.00
15636;DHT22;7917;50.818;6.972;2024-02-23T09:29:23;8.00;1.00
15636;DHT22;7917;50.818;6.972;2024-02-23T09:31:49;8.00;1.00
15636;DHT22;7917;50.818;6.972;2024-02-23T09:34:16;8.10;1.00
15636;DHT22;7917;50.818;6.972;2024-02-23T09:36:43;8.40;1.00
15636;DHT22;7917;50.818;6.972;2024-02-23T09:39:09;8.70;1.00
15636;DHT22;7917;50.818;6.972;2024-02-23T09:41:37;8.60;99.90
15636;DHT22;7917;50.818;6.972;2024-02-23T09:44:05;8.60;99.90
15636;DHT22;7917;50.818;6.972;2024-02-23T09:46:35;8.90;99.90
15636;DHT22;7917;50.818;6.972;2024-02-23T09:49:02;8.80;99.90
15636;DHT22;7917;50.818;6.972;2024-02-23T09:51:29;8.70;99.90
15636;DHT22;7917;50.818;6.972;2024-02-23T09:53:59;8.70;99.90
15636;DHT22;7917;50.818;6.972;2024-02-23T09:56:27;8.60;99.90
15636;DHT22;7917;50.818;6.972;2024-02-23T09:58:56;8.60;99.90
15636;DHT22;7917;50.818;6.972;2024-02-23T10:01:27;8.50;99.90
15636;DHT22;7917;50.818;6.972;2024-02-23T10:03:56;8.40;99.90
15636;DHT22;7917;50.818;6.972;2024-02-23T10:06:23;8.20;99.90
15636;DHT22;7917;50.818;6.972;2024-02-23T10:08:50;8.30;99.90
15636;DHT22;7917;50.818;6.972;2024-02-23T10:11:18;8.50;99.90
15636;DHT22;7917;50.818;6.972;2024-02-23T10:13:46;8.60;99.90
15636;DHT22;7917;50.818;6.972;2024-02-23T10:16:15;8.60;99.90
15636;DHT22;7917;50.818;6.972;2024-02-23T10:18:42;8.60;99.90
15636;DHT22;7917;50.818;6.972;2024-02-23T10:21:09;8.70;99.90
15636;DHT22;7917;50.818;6.972;2024-02-23T10:23:35;9.00;99.90
15636;DHT22;7917;50.818;6.972;2024-02-23T10:26:04;9.30;99.90
15636;DHT22;7917;50.818;6.972;2024-02-23T10:28:31;9.50;99.90
15636;DHT22;7917;50.818;6.972;2024-02-23T10:30:57;9.50;99.90
15636;DHT22;7917;50.818;6.972;2024-02-23T10:33:27;9.50;99.90
15636;DHT22;7917;50.818;6.972;2024-02-23T10:35:56;9.50;99.90
15636;DHT22;7917;50.818;6.972;2024-02-23T10:38:24;9.40;99.90
15636;DHT22;7917;50.818;6.972;2024-02-23T10:40:55;9.60;99.90
15636;DHT22;7917;50.818;6.972;2024-02-23T10:43:30;9.60;99.90
15636;DHT22;7917;50.818;6.972;2024-02-23T10:45:57;9.70;99.90
15636;DHT22;7917;50.818;6.972;2024-02-23T10:48:26;9.90;99.90
15636;DHT22;7917;50.818;6.972;2024-02-23T10:50:54;9.90;99.90
15636;DHT22;7917;50.818;6.972;2024-02-23T10:53:21;9.80;99.90
15636;DHT22;7917;50.818;6.972;2024-02-23T10:55:52;10.10;99.90
15636;DHT22;7917;50.818;6.972;2024-02-23T10:58:19;10.10;99.90
15636;DHT22;7917;50.818;6.972;2024-02-23T11:00:46;10.10;99.90
15636;DHT22;7917;50.818;6.972;2024-02-23T11:03:13;10.00;99.90
15636;DHT22;7917;50.818;6.972;2024-02-23T11:05:41;9.80;99.90
15636;DHT22;7917;50.818;6.972;2024-02-23T11:08:08;9.80;99.90
15636;DHT22;7917;50.818;6.972;2024-02-23T11:10:42;9.90;99.90
15636;DHT22;7917;50.818;6.972;2024-02-23T11:13:09;9.80;99.90
15636;DHT22;7917;50.818;6.972;2024-02-23T11:15:42;9.80;99.90
15636;DHT22;7917;50.818;6.972;2024-02-23T11:18:21;9.60;99.90
15636;DHT22;7917;50.818;6.972;2024-02-23T11:20:54;9.60;99.90
15636;DHT22;7917;50.818;6.972;2024-02-23T11:23:21;9.50;99.90
15636;DHT22;7917;50.818;6.972;2024-02-23T11:25:59;9.50;99.90
15636;DHT22;7917;50.818;6.972;2024-02-23T11:28:27;9.80;99.90
15636;DHT22;7917;50.818;6.972;2024-02-23T11:30:53;10.10;99.90
15636;DHT22;7917;50.818;6.972;2024-02-23T11:33:26;10.10;99.90
15636;DHT22;7917;50.818;6.972;2024-02-23T11:35:52;10.10;99.90
15636;DHT22;7917;50.818;6.972;2024-02-23T11:38:21;10.20;99.90
15636;DHT22;7917;50.818;6.972;2024-02-23T11:40:48;10.40;99.90
15636;DHT22;7917;50.818;6.972;2024-02-23T11:43:17;10.30;99.90
15636;DHT22;7917;50.818;6.972;2024-02-23T11:45:47;10.30;99.90
15636;DHT22;7917;50.818;6.972;2024-02-23T11:48:13;10.50;99.90
15636;DHT22;7917;50.818;6.972;2024-02-23T11:50:40;10.80;99.90
15636;DHT22;7917;50.818;6.972;2024-02-23T11:53:06;10.90;99.90
15636;DHT22;7917;50.818;6.972;2024-02-23T11:55:33;10.80;99.90
15636;DHT22;7917;50.818;6.972;2024-02-23T11:58:00;10.80;99.90
15636;DHT22;7917;50.818;6.972;2024-02-23T12:00:27;11.00;99.90
15636;DHT22;7917;50.818;6.972;2024-02-23T12:02:56;11.00;99.90
15636;DHT22;7917;50.818;6.972;2024-02-23T12:05:22;10.70;99.90
15636;DHT22;7917;50.818;6.972;2024-02-23T12:07:49;10.60;99.90
15636;DHT22;7917;50.818;6.972;2024-02-23T12:10:16;10.50;99.90
15636;DHT22;7917;50.818;6.972;2024-02-23T12:12:43;10.60;99.90
15636;DHT22;7917;50.818;6.972;2024-02-23T12:15:09;10.50;99.90
15636;DHT22;7917;50.818;6.972;2024-02-23T12:17:36;10.40;99.90
15636;DHT22;7917;50.818;6.972;2024-02-23T12:20:04;10.20;99.90
15636;DHT22;7917;50.818;6.972;2024-02-23T12:22:34;10.10;99.90
15636;DHT22;7917;50.818;6.972;2024-02-23T12:25:00;10.00;99.90
15636;DHT22;7917;50.818;6.972;2024-02-23T12:27:29;9.80;99.90
15636;DHT22;7917;50.818;6.972;2024-02-23T12:29:55;9.80;99.90
15636;DHT22;7917;50.818;6.972;2024-02-23T12:32:22;9.70;99.90
15636;DHT22;7917;50.818;6.972;2024-02-23T12:34:49;9.70;99.90
15636;DHT22;7917;50.818;6.972;2024-02-23T12:37:16;9.70;99.90
15636;DHT22;7917;50.818;6.972;2024-02-23T12:39:44;9.80;99.90
15636;DHT22;7917;50.818;6.972;2024-02-23T12:42:10;9.90;99.90
15636;DHT22;7917;50.818;6.972;2024-02-23T12:44:37;10.00;99.90
15636;DHT22;7917;50.818;6.972;2024-02-23T12:47:03;10.10;99.90
15636;DHT22;7917;50.818;6.972;2024-02-23T12:49:35;10.30;99.90
15636;DHT22;7917;50.818;6.972;2024-02-23T12:52:01;10.40;99.90
15636;DHT22;7917;50.818;6.972;2024-02-23T12:54:28;10.40;99.90
15636;DHT22;7917;50.818;6.972;2024-02-23T12:56:55;10.40;99.90
15636;DHT22;7917;50.818;6.972;2024-02-23T12:59:22;10.20;1.00
15636;DHT22;7917;50.818;6.972;2024-02-23T13:01:49;9.90;99.90
15636;DHT22;7917;50.818;6.972;2024-02-23T13:04:16;9.80;1.00
15636;DHT22;7917;50.818;6.972;2024-02-23T13:06:42;9.90;1.00
15636;DHT22;7917;50.818;6.972;2024-02-23T13:09:09;9.90;99.90
15636;DHT22;7917;50.818;6.972;2024-02-23T13:11:38;10.00;99.90
15636;DHT22;7917;50.818;6.972;2024-02-23T13:14:05;10.10;99.90
15636;DHT22;7917;50.818;6.972;2024-02-23T13:16:31;10.20;99.90
15636;DHT22;7917;50.818;6.972;2024-02-23T13:18:58;10.60;99.90
15636;DHT22;7917;50.818;6.972;2024-02-23T13:21:24;10.90;99.90
15636;DHT22;7917;50.818;6.972;2024-02-23T13:23:51;10.40;99.90
15636;DHT22;7917;50.818;6.972;2024-02-23T13:26:20;10.30;99.90
15636;DHT22;7917;50.818;6.972;2024-02-23T13:28:47;10.10;99.90
15636;DHT22;7917;50.818;6.972;2024-02-23T13:31:14;10.40;99.90
15636;DHT22;7917;50.818;6.972;2024-02-23T13:33:41;10.70;99.90
15636;DHT22;7917;50.818;6.972;2024-02-23T13:36:08;10.50;1.00
15636;DHT22;7917;50.818;6.972;2024-02-23T13:38:36;10.20;1.00
15636;DHT22;7917;50.818;6.972;2024-02-23T13:41:05;10.00;1.00
15636;DHT22;7917;50.818;6.972;2024-02-23T13:43:32;9.90;99.90
15636;DHT22;7917;50.818;6.972;2024-02-23T13:46:00;10.00;99.90
15636;DHT22;7917;50.818;6.972;2024-02-23T13:48:28;10.30;99.90
15636;DHT22;7917;50.818;6.972;2024-02-23T13:50:54;10.60;99.90
15636;DHT22;7917;50.818;6.972;2024-02-23T13:53:21;10.80;99.90
15636;DHT22;7917;50.818;6.972;2024-02-23T13:55:48;11.00;99.90
15636;DHT22;7917;50.818;6.972;2024-02-23T13:58:15;10.90;99.90
15636;DHT22;7917;50.818;6.972;2024-02-23T14:00:43;10.60;99.90
15636;DHT22;7917;50.818;6.972;2024-02-23T14:03:17;10.30;99.90
15636;DHT22;7917;50.818;6.972;2024-02-23T14:05:44;10.30;99.90
15636;DHT22;7917;50.818;6.972;2024-02-23T14:08:11;10.30;99.90
15636;DHT22;7917;50.818;6.972;2024-02-23T14:10:38;10.80;99.90
15636;DHT22;7917;50.818;6.972;2024-02-23T14:13:06;11.10;99.90
15636;DHT22;7917;50.818;6.972;2024-02-23T14:15:33;11.20;99.90
15636;DHT22;7917;50.818;6.972;2024-02-23T14:18:00;11.00;99.90
15636;DHT22;7917;50.818;6.972;2024-02-23T14:20:28;10.40;99.90
15636;DHT22;7917;50.818;6.972;2024-02-23T14:22:54;10.30;99.90
15636;DHT22;7917;50.818;6.972;2024-02-23T14:25:21;10.40;99.90
15636;DHT22;7917;50.818;6.972;2024-02-23T14:27:49;10.30;99.90
15636;DHT22;7917;50.818;6.972;2024-02-23T14:30:15;10.30;99.90
15636;DHT22;7917;50.818;6.972;2024-02-23T14:32:43;10.00;99.90
15636;DHT22;7917;50.818;6.972;2024-02-23T14:35:09;9.70;99.90
15636;DHT22;7917;50.818;6.972;2024-02-23T14:37:36;9.50;99.90
15636;DHT22;7917;50.818;6.972;2024-02-23T14:40:04;9.50;99.90
15636;DHT22;7917;50.818;6.972;2024-02-23T14:42:31;9.50;99.90
15636;DHT22;7917;50.818;6.972;2024-02-23T14:44:57;10.00;99.90
15636;DHT22;7917;50.818;6.972;2024-02-23T14:47:24;9.50;99.90
15636;DHT22;7917;50.818;6.972;2024-02-23T14:49:51;9.50;99.90
15636;DHT22;7917;50.818;6.972;2024-02-23T14:52:17;9.40;99.90
15636;DHT22;7917;50.818;6.972;2024-02-23T14:54:45;9.30;99.90
15636;DHT22;7917;50.818;6.972;2024-02-23T14:57:12;9.20;1.00
15636;DHT22;7917;50.818;6.972;2024-02-23T14:59:39;9.30;99.90
15636;DHT22;7917;50.818;6.972;2024-02-23T15:02:18;9.40;1.00
15636;DHT22;7917;50.818;6.972;2024-02-23T15:04:45;9.60;99.90
15636;DHT22;7917;50.818;6.972;2024-02-23T15:07:12;9.60;99.90
15636;DHT22;7917;50.818;6.972;2024-02-23T15:09:39;9.70;1.00
15636;DHT22;7917;50.818;6.972;2024-02-23T15:12:07;9.80;99.90
15636;DHT22;7917;50.818;6.972;2024-02-23T15:14:34;9.70;15.20
15636;DHT22;7917;50.818;6.972;2024-02-23T15:17:00;9.50;1.00
15636;DHT22;7917;50.818;6.972;2024-02-23T15:19:27;9.50;1.00
15636;DHT22;7917;50.818;6.972;2024-02-23T15:21:54;9.50;99.90
15636;DHT22;7917;50.818;6.972;2024-02-23T15:24:21;9.80;1.00
15636;DHT22;7917;50.818;6.972;2024-02-23T15:26:50;9.80;1.00
15636;DHT22;7917;50.818;6.972;2024-02-23T15:29:18;9.90;99.90
15636;DHT22;7917;50.818;6.972;2024-02-23T15:31:45;9.90;99.90
15636;DHT22;7917;50.818;6.972;2024-02-23T15:34:11;9.80;49.90
15636;DHT22;7917;50.818;6.972;2024-02-23T15:36:38;9.80;99.90
15636;DHT22;7917;50.818;6.972;2024-02-23T15:39:05;9.60;49.30
15636;DHT22;7917;50.818;6.972;2024-02-23T15:41:32;9.40;96.50
15636;DHT22;7917;50.818;6.972;2024-02-23T15:44:00;9.30;1.00
15636;DHT22;7917;50.818;6.972;2024-02-23T15:46:27;9.20;80.10
15636;DHT22;7917;50.818;6.972;2024-02-23T15:48:55;9.20;1.00
15636;DHT22;7917;50.818;6.972;2024-02-23T15:51:22;9.10;1.00
15636;DHT22;7917;50.818;6.972;2024-02-23T15:53:49;9.00;1.00
15636;DHT22;7917;50.818;6.972;2024-02-23T15:56:15;8.90;99.90
15636;DHT22;7917;50.818;6.972;2024-02-23T15:58:42;8.80;99.90
15636;DHT22;7917;50.818;6.972;2024-02-23T16:01:09;8.60;99.90
15636;DHT22;7917;50.818;6.972;2024-02-23T16:03:36;8.60;99.90